sensor_id;sensor_type;location;lat;lon;timestamp;pressure;altitude;pressure_sealevel;temperature;humidity
3780;BME280;1905;52.482;9.802;2023-01-29T00:02:14;102364.38;;;1.35;86.83
3780;BME280;1905;52.482;9.802;2023-01-29T00:04:42;102366.94;;;1.34;86.54
3780;BME280;1905;52.482;9.802;2023-01-29T00:07:09;102369.50;;;1.32;86.81
3780;BME280;1905;52.482;9.802;2023-01-29T00:09:38;102366.97;;;1.35;87.11
3780;BME280;1905;52.482;9.802;2023-01-29T00:12:06;102361.84;;;1.38;86.61
3780;BME280;1905;52.482;9.802;2023-01-29T00:14:34;102354.88;;;1.37;86.90
3780;BME280;1905;52.482;9.802;2023-01-29T00:17:01;102354.84;;;1.36;86.28
3780;BME280;1905;52.482;9.802;2023-01-29T00:19:29;102353.09;;;1.36;86.50
3780;BME280;1905;52.482;9.802;2023-01-29T00:21:56;102359.25;;;1.40;86.61
3780;BME280;1905;52.482;9.802;2023-01-29T00:24:24;102354.06;;;1.40;86.68
3780;BME280;1905;52.482;9.802;2023-01-29T00:26:53;102357.56;;;1.42;86.83
3780;BME280;1905;52.482;9.802;2023-01-29T00:29:20;102352.28;;;1.37;86.93
3780;BME280;1905;52.482;9.802;2023-01-29T00:31:48;102348.84;;;1.40;86.52
3780;BME280;1905;52.482;9.802;2023-01-29T00:34:16;102339.31;;;1.40;87.01
3780;BME280;1905;52.482;9.802;2023-01-29T00:36:43;102340.22;;;1.42;86.45
3780;BME280;1905;52.482;9.802;2023-01-29T00:39:11;102353.22;;;1.42;86.10
3780;BME280;1905;52.482;9.802;2023-01-29T00:41:39;102338.50;;;1.41;86.54
3780;BME280;1905;52.482;9.802;2023-01-29T00:44:25;102352.34;;;1.42;86.89
3780;BME280;1905;52.482;9.802;2023-01-29T00:47:10;102347.13;;;1.40;87.03
3780;BME280;1905;52.482;9.802;2023-01-29T00:49:56;102353.16;;;1.39;86.79
3780;BME280;1905;52.482;9.802;2023-01-29T00:52:23;102360.09;;;1.39;86.64
3780;BME280;1905;52.482;9.802;2023-01-29T00:54:51;102359.25;;;1.38;86.98
3780;BME280;1905;52.482;9.802;2023-01-29T00:57:19;102353.16;;;1.39;87.11
3780;BME280;1905;52.482;9.802;2023-01-29T00:59:48;102347.19;;;1.43;86.74
3780;BME280;1905;52.482;9.802;2023-01-29T01:02:16;102342.81;;;1.42;86.42
3780;BME280;1905;52.482;9.802;2023-01-29T01:05:03;102345.34;;;1.38;87.15
3780;BME280;1905;52.482;9.802;2023-01-29T01:07:31;102339.31;;;1.40;86.44
3780;BME280;1905;52.482;9.802;2023-01-29T01:09:58;102328.97;;;1.43;86.91
3780;BME280;1905;52.482;9.802;2023-01-29T01:12:44;102331.59;;;1.43;86.52
3780;BME280;1905;52.482;9.802;2023-01-29T01:15:13;102332.41;;;1.42;87.13
3780;BME280;1905;52.482;9.802;2023-01-29T01:17:41;102328.97;;;1.43;86.81
3780;BME280;1905;52.482;9.802;2023-01-29T01:20:09;102321.13;;;1.42;86.52
3780;BME280;1905;52.482;9.802;2023-01-29T01:22:37;102315.09;;;1.44;86.38
3780;BME280;1905;52.482;9.802;2023-01-29T01:25:06;102302.09;;;1.44;86.75
3780;BME280;1905;52.482;9.802;2023-01-29T01:27:37;102302.13;;;1.46;86.51
3780;BME280;1905;52.482;9.802;2023-01-29T01:30:10;102292.53;;;1.43;86.72
3780;BME280;1905;52.482;9.802;2023-01-29T01:32:41;102302.06;;;1.43;86.66
3780;BME280;1905;52.482;9.802;2023-01-29T01:35:10;102297.75;;;1.43;86.54
3780;BME280;1905;52.482;9.802;2023-01-29T01:37:39;102283.84;;;1.41;86.97
3780;BME280;1905;52.482;9.802;2023-01-29T01:40:11;102285.56;;;1.41;87.25
3780;BME280;1905;52.482;9.802;2023-01-29T01:42:43;102287.34;;;1.43;86.46
3780;BME280;1905;52.482;9.802;2023-01-29T01:45:17;102288.16;;;1.41;86.99
3780;BME280;1905;52.482;9.802;2023-01-29T01:47:48;102289.03;;;1.41;86.85
3780;BME280;1905;52.482;9.802;2023-01-29T01:50:20;102291.66;;;1.41;86.56
3780;BME280;1905;52.482;9.802;2023-01-29T01:52:52;102289.06;;;1.43;86.46
3780;BME280;1905;52.482;9.802;2023-01-29T01:55:24;102293.31;;;1.39;86.63
3780;BME280;1905;52.482;9.802;2023-01-29T01:57:56;102294.25;;;1.41;86.90
3780;BME280;1905;52.482;9.802;2023-01-29T02:00:25;102293.38;;;1.41;87.15
3780;BME280;1905;52.482;9.802;2023-01-29T02:02:54;102287.22;;;1.37;86.70
3780;BME280;1905;52.482;9.802;2023-01-29T02:05:40;102291.50;;;1.35;87.13
3780;BME280;1905;52.482;9.802;2023-01-29T02:08:30;102298.47;;;1.36;86.91
3780;BME280;1905;52.482;9.802;2023-01-29T02:11:18;102301.88;;;1.32;87.24
3780;BME280;1905;52.482;9.802;2023-01-29T02:13:46;102307.13;;;1.35;86.64
3780;BME280;1905;52.482;9.802;2023-01-29T02:16:24;102308.84;;;1.35;87.39
3780;BME280;1905;52.482;9.802;2023-01-29T02:18:55;102314.94;;;1.35;87.28
3780;BME280;1905;52.482;9.802;2023-01-29T02:21:35;102319.25;;;1.35;86.64
3780;BME280;1905;52.482;9.802;2023-01-29T02:27:13;102318.38;;;1.34;86.98
3780;BME280;1905;52.482;9.802;2023-01-29T02:29:51;102327.91;;;1.34;86.72
3780;BME280;1905;52.482;9.802;2023-01-29T02:32:27;102328.78;;;1.34;87.00
3780;BME280;1905;52.482;9.802;2023-01-29T02:35:06;102330.56;;;1.35;87.41
3780;BME280;1905;52.482;9.802;2023-01-29T02:38:01;102334.88;;;1.35;87.40
3780;BME280;1905;52.482;9.802;2023-01-29T02:40:39;102341.78;;;1.34;87.45
3780;BME280;1905;52.482;9.802;2023-01-29T02:43:19;102334.06;;;1.37;86.94
3780;BME280;1905;52.482;9.802;2023-01-29T02:45:58;102330.63;;;1.38;87.01
3780;BME280;1905;52.482;9.802;2023-01-29T02:48:36;102323.66;;;1.37;87.06
3780;BME280;1905;52.482;9.802;2023-01-29T02:51:09;102328.91;;;1.40;87.38
3780;BME280;1905;52.482;9.802;2023-01-29T02:53:45;102329.75;;;1.39;87.46
3780;BME280;1905;52.482;9.802;2023-01-29T02:56:18;102325.47;;;1.41;86.88
3780;BME280;1905;52.482;9.802;2023-01-29T02:58:52;102328.97;;;1.43;86.62
3780;BME280;1905;52.482;9.802;2023-01-29T03:01:27;102318.56;;;1.43;86.89
3780;BME280;1905;52.482;9.802;2023-01-29T03:04:01;102308.16;;;1.43;87.11
3780;BME280;1905;52.482;9.802;2023-01-29T03:06:32;102310.81;;;1.46;86.66
3780;BME280;1905;52.482;9.802;2023-01-29T03:09:03;102308.22;;;1.46;86.64
3780;BME280;1905;52.482;9.802;2023-01-29T03:11:35;102309.09;;;1.47;87.11
3780;BME280;1905;52.482;9.802;2023-01-29T03:14:07;102307.34;;;1.46;87.18
3780;BME280;1905;52.482;9.802;2023-01-29T03:16:42;102301.31;;;1.50;86.80
3780;BME280;1905;52.482;9.802;2023-01-29T03:19:15;102304.81;;;1.50;86.88
3780;BME280;1905;52.482;9.802;2023-01-29T03:21:47;102299.59;;;1.49;87.32
3780;BME280;1905;52.482;9.802;2023-01-29T03:24:21;102310.03;;;1.50;87.25
3780;BME280;1905;52.482;9.802;2023-01-29T03:27:09;102310.03;;;1.50;86.45
3780;BME280;1905;52.482;9.802;2023-01-29T03:29:57;102299.59;;;1.50;86.55
3780;BME280;1905;52.482;9.802;2023-01-29T03:33:02;102297.88;;;1.49;87.22
3780;BME280;1905;52.482;9.802;2023-01-29T03:35:35;102304.88;;;1.53;86.35
3780;BME280;1905;52.482;9.802;2023-01-29T03:38:07;102297.06;;;1.52;86.88
3780;BME280;1905;52.482;9.802;2023-01-29T03:40:43;102288.44;;;1.54;86.76
3780;BME280;1905;52.482;9.802;2023-01-29T03:43:21;102284.06;;;1.53;86.82
3780;BME280;1905;52.482;9.802;2023-01-29T03:45:59;102284.06;;;1.53;86.32
3780;BME280;1905;52.482;9.802;2023-01-29T03:48:35;102278.00;;;1.54;86.81
3780;BME280;1905;52.482;9.802;2023-01-29T03:51:14;102266.72;;;1.55;86.24
3780;BME280;1905;52.482;9.802;2023-01-29T03:53:48;102261.53;;;1.55;86.59
3780;BME280;1905;52.482;9.802;2023-01-29T03:56:29;102253.72;;;1.55;86.88
3780;BME280;1905;52.482;9.802;2023-01-29T03:59:03;102254.66;;;1.57;86.45
3780;BME280;1905;52.482;9.802;2023-01-29T04:02:03;102265.06;;;1.57;86.43
3780;BME280;1905;52.482;9.802;2023-01-29T04:04:33;102259.84;;;1.57;86.52
3780;BME280;1905;52.482;9.802;2023-01-29T04:07:08;102252.03;;;1.57;85.95
3780;BME280;1905;52.482;9.802;2023-01-29T04:09:40;102249.44;;;1.57;86.50
3780;BME280;1905;52.482;9.802;2023-01-29T04:12:11;102245.06;;;1.55;86.76
3780;BME280;1905;52.482;9.802;2023-01-29T04:14:42;102231.22;;;1.59;86.60
3780;BME280;1905;52.482;9.802;2023-01-29T04:17:15;102232.13;;;1.59;86.44
3780;BME280;1905;52.482;9.802;2023-01-29T04:20:01;102228.63;;;1.57;86.43
3780;BME280;1905;52.482;9.802;2023-01-29T04:22:32;102225.09;;;1.55;86.56
3780;BME280;1905;52.482;9.802;2023-01-29T04:25:02;102214.72;;;1.58;86.10
3780;BME280;1905;52.482;9.802;2023-01-29T04:27:39;102209.50;;;1.57;85.90
3780;BME280;1905;52.482;9.802;2023-01-29T04:30:21;102213.00;;;1.57;86.00
3780;BME280;1905;52.482;9.802;2023-01-29T04:32:58;102213.78;;;1.53;86.19
3780;BME280;1905;52.482;9.802;2023-01-29T04:35:42;102209.53;;;1.58;86.33
3780;BME280;1905;52.482;9.802;2023-01-29T04:38:16;102204.31;;;1.58;86.10
3780;BME280;1905;52.482;9.802;2023-01-29T04:40:53;102199.16;;;1.61;86.26
3780;BME280;1905;52.482;9.802;2023-01-29T04:43:27;102201.81;;;1.63;86.17
3780;BME280;1905;52.482;9.802;2023-01-29T04:46:07;102197.41;;;1.60;86.76
3780;BME280;1905;52.482;9.802;2023-01-29T04:48:45;102193.13;;;1.62;86.30
3780;BME280;1905;52.482;9.802;2023-01-29T04:51:23;102183.53;;;1.61;86.32
3780;BME280;1905;52.482;9.802;2023-01-29T04:53:57;102175.78;;;1.64;86.06
3780;BME280;1905;52.482;9.802;2023-01-29T04:56:30;102179.22;;;1.62;86.15
3780;BME280;1905;52.482;9.802;2023-01-29T04:59:03;102178.34;;;1.61;86.28
3780;BME280;1905;52.482;9.802;2023-01-29T05:01:32;102179.22;;;1.62;86.13
3780;BME280;1905;52.482;9.802;2023-01-29T05:04:05;102167.09;;;1.64;86.18
3780;BME280;1905;52.482;9.802;2023-01-29T05:06:36;102172.31;;;1.64;86.07
3780;BME280;1905;52.482;9.802;2023-01-29T05:09:05;102178.41;;;1.64;85.76
3780;BME280;1905;52.482;9.802;2023-01-29T05:11:35;102172.28;;;1.62;86.36
3780;BME280;1905;52.482;9.802;2023-01-29T05:14:05;102165.44;;;1.67;85.63
3780;BME280;1905;52.482;9.802;2023-01-29T05:16:37;102163.56;;;1.60;86.04
3780;BME280;1905;52.482;9.802;2023-01-29T05:19:08;102164.47;;;1.62;86.34
3780;BME280;1905;52.482;9.802;2023-01-29T05:21:38;102166.22;;;1.62;86.44
3780;BME280;1905;52.482;9.802;2023-01-29T05:24:18;102166.22;;;1.63;85.95
3780;BME280;1905;52.482;9.802;2023-01-29T05:26:48;102173.13;;;1.61;86.19
3780;BME280;1905;52.482;9.802;2023-01-29T05:29:33;102176.56;;;1.60;86.17
3780;BME280;1905;52.482;9.802;2023-01-29T05:32:02;102183.53;;;1.60;86.69
3780;BME280;1905;52.482;9.802;2023-01-29T05:34:29;102182.66;;;1.59;86.67
3780;BME280;1905;52.482;9.802;2023-01-29T05:36:58;102186.16;;;1.61;86.69
3780;BME280;1905;52.482;9.802;2023-01-29T05:39:26;102176.56;;;1.60;86.03
3780;BME280;1905;52.482;9.802;2023-01-29T05:41:53;102182.66;;;1.61;86.17
3780;BME280;1905;52.482;9.802;2023-01-29T05:44:21;102187.00;;;1.60;85.55
3780;BME280;1905;52.482;9.802;2023-01-29T05:46:48;102178.34;;;1.61;86.60
3780;BME280;1905;52.482;9.802;2023-01-29T05:49:17;102181.75;;;1.57;85.97
3780;BME280;1905;52.482;9.802;2023-01-29T05:51:45;102190.47;;;1.59;85.94
3780;BME280;1905;52.482;9.802;2023-01-29T05:54:14;102204.38;;;1.61;85.61
3780;BME280;1905;52.482;9.802;2023-01-29T05:56:42;102208.69;;;1.61;86.26
3780;BME280;1905;52.482;9.802;2023-01-29T05:59:09;102209.56;;;1.60;86.54
3780;BME280;1905;52.482;9.802;2023-01-29T06:01:37;102207.88;;;1.63;86.35
3780;BME280;1905;52.482;9.802;2023-01-29T06:04:04;102196.63;;;1.64;86.61
3780;BME280;1905;52.482;9.802;2023-01-29T06:06:32;102197.50;;;1.66;85.98
3780;BME280;1905;52.482;9.802;2023-01-29T06:08:59;102213.13;;;1.66;86.30
3780;BME280;1905;52.482;9.802;2023-01-29T06:11:28;102220.94;;;1.66;85.96
3780;BME280;1905;52.482;9.802;2023-01-29T06:13:55;102206.19;;;1.65;86.60
3780;BME280;1905;52.482;9.802;2023-01-29T06:16:23;102203.66;;;1.70;86.60
3780;BME280;1905;52.482;9.802;2023-01-29T06:18:50;102178.44;;;1.67;86.94
3780;BME280;1905;52.482;9.802;2023-01-29T06:21:18;102185.38;;;1.67;86.04
3780;BME280;1905;52.482;9.802;2023-01-29T06:23:45;102201.06;;;1.71;85.51
3780;BME280;1905;52.482;9.802;2023-01-29T06:26:14;102206.28;;;1.71;86.27
3780;BME280;1905;52.482;9.802;2023-01-29T06:28:43;102214.09;;;1.71;86.26
3780;BME280;1905;52.482;9.802;2023-01-29T06:31:11;102216.69;;;1.71;85.96
3780;BME280;1905;52.482;9.802;2023-01-29T06:33:58;102209.69;;;1.67;86.12
3780;BME280;1905;52.482;9.802;2023-01-29T06:36:26;102201.94;;;1.72;86.06
3780;BME280;1905;52.482;9.802;2023-01-29T06:38:53;102204.53;;;1.70;85.92
3780;BME280;1905;52.482;9.802;2023-01-29T06:41:21;102193.28;;;1.73;85.37
3780;BME280;1905;52.482;9.802;2023-01-29T06:43:52;102197.63;;;1.72;85.58
3780;BME280;1905;52.482;9.802;2023-01-29T06:46:19;102187.25;;;1.75;86.09
3780;BME280;1905;52.482;9.802;2023-01-29T06:48:47;102181.16;;;1.73;85.72
3780;BME280;1905;52.482;9.802;2023-01-29T06:51:14;102195.06;;;1.75;85.90
3780;BME280;1905;52.482;9.802;2023-01-29T06:53:42;102201.09;;;1.73;85.68
3780;BME280;1905;52.482;9.802;2023-01-29T06:56:12;102216.78;;;1.77;85.21
3780;BME280;1905;52.482;9.802;2023-01-29T06:58:39;102231.47;;;1.74;86.08
3780;BME280;1905;52.482;9.802;2023-01-29T07:01:11;102233.31;;;1.78;85.93
3780;BME280;1905;52.482;9.802;2023-01-29T07:03:58;102239.41;;;1.78;85.99
3780;BME280;1905;52.482;9.802;2023-01-29T07:06:27;102230.72;;;1.79;85.75
3780;BME280;1905;52.482;9.802;2023-01-29T07:08:55;102244.63;;;1.80;86.13
3780;BME280;1905;52.482;9.802;2023-01-29T07:11:22;102249.88;;;1.82;85.69
3780;BME280;1905;52.482;9.802;2023-01-29T07:13:50;102228.97;;;1.78;86.62
3780;BME280;1905;52.482;9.802;2023-01-29T07:16:19;102221.19;;;1.80;85.71
3780;BME280;1905;52.482;9.802;2023-01-29T07:18:46;102223.88;;;1.85;85.66
3780;BME280;1905;52.482;9.802;2023-01-29T07:21:14;102228.22;;;1.84;86.18
3780;BME280;1905;52.482;9.802;2023-01-29T07:23:42;102220.34;;;1.83;85.49
3780;BME280;1905;52.482;9.802;2023-01-29T07:26:10;102196.06;;;1.84;85.61
3780;BME280;1905;52.482;9.802;2023-01-29T07:28:38;102188.31;;;1.88;85.33
3780;BME280;1905;52.482;9.802;2023-01-29T07:31:07;102190.91;;;1.87;85.46
3780;BME280;1905;52.482;9.802;2023-01-29T07:33:36;102189.16;;;1.86;85.41
3780;BME280;1905;52.482;9.802;2023-01-29T07:36:06;102194.41;;;1.89;85.79
3780;BME280;1905;52.482;9.802;2023-01-29T07:38:34;102190.91;;;1.87;85.99
3780;BME280;1905;52.482;9.802;2023-01-29T07:41:03;102196.13;;;1.87;86.49
3780;BME280;1905;52.482;9.802;2023-01-29T07:43:31;102192.69;;;1.91;85.87
3780;BME280;1905;52.482;9.802;2023-01-29T07:46:00;102181.38;;;1.87;86.41
3780;BME280;1905;52.482;9.802;2023-01-29T07:48:29;102164.03;;;1.89;86.79
3780;BME280;1905;52.482;9.802;2023-01-29T07:50:58;102157.13;;;1.90;86.50
3780;BME280;1905;52.482;9.802;2023-01-29T07:53:26;102158.78;;;1.88;86.39
3780;BME280;1905;52.482;9.802;2023-01-29T07:55:54;102160.56;;;1.87;87.06
3780;BME280;1905;52.482;9.802;2023-01-29T07:58:22;102161.38;;;1.86;87.14
3780;BME280;1905;52.482;9.802;2023-01-29T08:00:49;102164.94;;;1.91;87.20
3780;BME280;1905;52.482;9.802;2023-01-29T08:03:18;102166.66;;;1.91;87.03
3780;BME280;1905;52.482;9.802;2023-01-29T08:05:46;102173.72;;;1.98;87.08
3780;BME280;1905;52.482;9.802;2023-01-29T08:08:15;102170.25;;;1.96;86.84
3780;BME280;1905;52.482;9.802;2023-01-29T08:10:42;102168.44;;;1.93;87.17
3780;BME280;1905;52.482;9.802;2023-01-29T08:13:10;102169.31;;;1.92;86.78
3780;BME280;1905;52.482;9.802;2023-01-29T08:15:37;102169.38;;;1.97;87.13
3780;BME280;1905;52.482;9.802;2023-01-29T08:18:05;102165.91;;;1.98;86.80
3780;BME280;1905;52.482;9.802;2023-01-29T08:20:32;102164.16;;;1.97;86.37
3780;BME280;1905;52.482;9.802;2023-01-29T08:23:01;102169.41;;;2.00;87.40
3780;BME280;1905;52.482;9.802;2023-01-29T08:25:31;102162.47;;;2.00;86.94
3780;BME280;1905;52.482;9.802;2023-01-29T08:27:59;102163.41;;;2.04;86.84
3780;BME280;1905;52.482;9.802;2023-01-29T08:30:28;102156.50;;;2.07;87.09
3780;BME280;1905;52.482;9.802;2023-01-29T08:32:57;102162.47;;;2.00;87.69
3780;BME280;1905;52.482;9.802;2023-01-29T08:35:24;102152.13;;;2.03;87.29
3780;BME280;1905;52.482;9.802;2023-01-29T08:37:53;102149.47;;;2.02;87.49
3780;BME280;1905;52.482;9.802;2023-01-29T08:40:21;102146.91;;;2.05;87.27
3780;BME280;1905;52.482;9.802;2023-01-29T08:42:50;102151.25;;;2.04;87.41
3780;BME280;1905;52.482;9.802;2023-01-29T08:45:17;102141.75;;;2.06;87.06
3780;BME280;1905;52.482;9.802;2023-01-29T08:47:45;102133.94;;;2.08;87.38
3780;BME280;1905;52.482;9.802;2023-01-29T08:50:13;102134.78;;;2.07;87.43
3780;BME280;1905;52.482;9.802;2023-01-29T08:52:41;102138.31;;;2.10;87.84
3780;BME280;1905;52.482;9.802;2023-01-29T08:55:09;102143.53;;;2.10;87.74
3780;BME280;1905;52.482;9.802;2023-01-29T08:57:37;102144.44;;;2.14;87.45
3780;BME280;1905;52.482;9.802;2023-01-29T09:00:08;102142.69;;;2.13;87.04
3780;BME280;1905;52.482;9.802;2023-01-29T09:02:36;102137.53;;;2.16;87.56
3780;BME280;1905;52.482;9.802;2023-01-29T09:05:04;102134.06;;;2.17;87.50
3780;BME280;1905;52.482;9.802;2023-01-29T09:07:32;102139.28;;;2.17;87.01
3780;BME280;1905;52.482;9.802;2023-01-29T09:10:00;102132.34;;;2.17;87.11
3780;BME280;1905;52.482;9.802;2023-01-29T09:12:27;102132.34;;;2.19;87.23
3780;BME280;1905;52.482;9.802;2023-01-29T09:14:55;102121.09;;;2.20;87.37
3780;BME280;1905;52.482;9.802;2023-01-29T09:17:24;102124.59;;;2.22;86.65
3780;BME280;1905;52.482;9.802;2023-01-29T09:19:51;102121.13;;;2.24;86.82
3780;BME280;1905;52.482;9.802;2023-01-29T09:22:19;102113.28;;;2.23;86.78
3780;BME280;1905;52.482;9.802;2023-01-29T09:24:47;102102.91;;;2.24;87.46
3780;BME280;1905;52.482;9.802;2023-01-29T09:27:14;102114.25;;;2.28;86.66
3780;BME280;1905;52.482;9.802;2023-01-29T09:29:42;102113.38;;;2.29;87.40
3780;BME280;1905;52.482;9.802;2023-01-29T09:32:09;102117.75;;;2.30;86.95
3780;BME280;1905;52.482;9.802;2023-01-29T09:34:38;102113.41;;;2.32;87.25
3780;BME280;1905;52.482;9.802;2023-01-29T09:37:06;102111.69;;;2.34;87.57
3780;BME280;1905;52.482;9.802;2023-01-29T09:39:33;102097.81;;;2.35;86.32
3780;BME280;1905;52.482;9.802;2023-01-29T09:42:07;102101.31;;;2.37;87.21
3780;BME280;1905;52.482;9.802;2023-01-29T09:44:47;102090.00;;;2.36;87.50
3780;BME280;1905;52.482;9.802;2023-01-29T09:47:19;102101.34;;;2.40;87.58
3780;BME280;1905;52.482;9.802;2023-01-29T09:49:54;102097.91;;;2.41;86.49
3780;BME280;1905;52.482;9.802;2023-01-29T09:52:25;102099.72;;;2.47;86.70
3780;BME280;1905;52.482;9.802;2023-01-29T09:55:04;102101.44;;;2.46;87.20
3780;BME280;1905;52.482;9.802;2023-01-29T09:57:39;102100.56;;;2.46;86.88
3780;BME280;1905;52.482;9.802;2023-01-29T10:00:13;102086.69;;;2.47;87.46
3780;BME280;1905;52.482;9.802;2023-01-29T10:02:58;102098.00;;;2.50;87.52
3780;BME280;1905;52.482;9.802;2023-01-29T10:06:01;102084.13;;;2.51;86.58
3780;BME280;1905;52.482;9.802;2023-01-29T10:09:03;102084.97;;;2.50;86.84
3780;BME280;1905;52.482;9.802;2023-01-29T10:11:38;102092.81;;;2.53;86.51
3780;BME280;1905;52.482;9.802;2023-01-29T10:14:15;102090.25;;;2.56;87.01
3780;BME280;1905;52.482;9.802;2023-01-29T10:16:54;102085.97;;;2.58;86.62
3780;BME280;1905;52.482;9.802;2023-01-29T10:19:44;102079.84;;;2.58;87.39
3780;BME280;1905;52.482;9.802;2023-01-29T10:22:30;102086.84;;;2.62;87.39
3780;BME280;1905;52.482;9.802;2023-01-29T10:25:04;102074.69;;;2.61;86.72
3780;BME280;1905;52.482;9.802;2023-01-29T10:27:33;102089.47;;;2.63;86.29
3780;BME280;1905;52.482;9.802;2023-01-29T10:30:07;102089.47;;;2.63;86.66
3780;BME280;1905;52.482;9.802;2023-01-29T10:32:36;102085.16;;;2.67;86.33
3780;BME280;1905;52.482;9.802;2023-01-29T10:35:12;102090.41;;;2.68;86.83
3780;BME280;1905;52.482;9.802;2023-01-29T10:37:45;102074.72;;;2.67;87.14
3780;BME280;1905;52.482;9.802;2023-01-29T10:40:19;102073.88;;;2.69;86.97
3780;BME280;1905;52.482;9.802;2023-01-29T10:42:52;102063.53;;;2.74;86.13
3780;BME280;1905;52.482;9.802;2023-01-29T10:45:29;102063.53;;;2.75;86.51
3780;BME280;1905;52.482;9.802;2023-01-29T10:48:14;102058.34;;;2.78;86.67
3780;BME280;1905;52.482;9.802;2023-01-29T10:50:48;102051.38;;;2.74;86.15
3780;BME280;1905;52.482;9.802;2023-01-29T10:53:30;102047.06;;;2.79;87.04
3780;BME280;1905;52.482;9.802;2023-01-29T10:56:08;102034.03;;;2.79;86.30
3780;BME280;1905;52.482;9.802;2023-01-29T10:58:49;102028.84;;;2.85;86.43
3780;BME280;1905;52.482;9.802;2023-01-29T11:01:17;102016.69;;;2.84;86.89
3780;BME280;1905;52.482;9.802;2023-01-29T11:03:55;102017.56;;;2.86;86.85
3780;BME280;1905;52.482;9.802;2023-01-29T11:06:25;102012.38;;;2.88;85.98
3780;BME280;1905;52.482;9.802;2023-01-29T11:09:02;102020.19;;;2.89;85.68
3780;BME280;1905;52.482;9.802;2023-01-29T11:11:36;102018.47;;;2.91;85.56
3780;BME280;1905;52.482;9.802;2023-01-29T11:14:09;102010.66;;;2.93;86.26
3780;BME280;1905;52.482;9.802;2023-01-29T11:16:40;102015.88;;;2.94;86.29
3780;BME280;1905;52.482;9.802;2023-01-29T11:19:08;102008.09;;;2.96;85.39
3780;BME280;1905;52.482;9.802;2023-01-29T11:21:50;102005.47;;;2.97;85.93
3780;BME280;1905;52.482;9.802;2023-01-29T11:24:19;102001.16;;;2.99;85.12
3780;BME280;1905;52.482;9.802;2023-01-29T11:26:48;101997.66;;;2.97;85.48
3780;BME280;1905;52.482;9.802;2023-01-29T11:29:32;101988.13;;;3.01;85.86
3780;BME280;1905;52.482;9.802;2023-01-29T11:32:03;101985.50;;;2.99;86.01
3780;BME280;1905;52.482;9.802;2023-01-29T11:34:32;101975.09;;;3.03;85.37
3780;BME280;1905;52.482;9.802;2023-01-29T11:37:01;101974.19;;;3.02;85.16
3780;BME280;1905;52.482;9.802;2023-01-29T11:39:31;101974.22;;;3.04;85.39
3780;BME280;1905;52.482;9.802;2023-01-29T11:42:00;101969.00;;;3.05;86.10
3780;BME280;1905;52.482;9.802;2023-01-29T11:44:30;101962.97;;;3.11;85.49
3780;BME280;1905;52.482;9.802;2023-01-29T11:47:10;101958.59;;;3.07;85.79
3780;BME280;1905;52.482;9.802;2023-01-29T11:49:43;101961.22;;;3.08;85.12
3780;BME280;1905;52.482;9.802;2023-01-29T11:52:13;101967.31;;;3.10;86.00
3780;BME280;1905;52.482;9.802;2023-01-29T11:54:46;101951.66;;;3.09;86.01
3780;BME280;1905;52.482;9.802;2023-01-29T11:57:23;101955.16;;;3.12;85.96
3780;BME280;1905;52.482;9.802;2023-01-29T11:59:54;101940.38;;;3.16;85.27
3780;BME280;1905;52.482;9.802;2023-01-29T12:02:26;101936.91;;;3.17;85.91
3780;BME280;1905;52.482;9.802;2023-01-29T12:04:59;101929.09;;;3.17;85.87
3780;BME280;1905;52.482;9.802;2023-01-29T12:07:29;101928.22;;;3.21;85.51
3780;BME280;1905;52.482;9.802;2023-01-29T12:09:59;101938.66;;;3.21;85.78
3780;BME280;1905;52.482;9.802;2023-01-29T12:12:32;101924.78;;;3.22;84.66
3780;BME280;1905;52.482;9.802;2023-01-29T12:15:14;101921.31;;;3.27;84.53
3780;BME280;1905;52.482;9.802;2023-01-29T12:17:47;101920.47;;;3.28;84.84
3780;BME280;1905;52.482;9.802;2023-01-29T12:20:22;101922.19;;;3.26;85.20
3780;BME280;1905;52.482;9.802;2023-01-29T12:22:56;101907.41;;;3.27;84.73
3780;BME280;1905;52.482;9.802;2023-01-29T12:25:37;101916.13;;;3.32;85.73
3780;BME280;1905;52.482;9.802;2023-01-29T12:28:17;101910.03;;;3.30;86.10
3780;BME280;1905;52.482;9.802;2023-01-29T12:30:52;101919.63;;;3.34;85.42
3780;BME280;1905;52.482;9.802;2023-01-29T12:33:36;101921.38;;;3.35;85.47
3780;BME280;1905;52.482;9.802;2023-01-29T12:36:09;101917.91;;;3.36;84.89
3780;BME280;1905;52.482;9.802;2023-01-29T12:38:42;101911.81;;;3.34;85.12
3780;BME280;1905;52.482;9.802;2023-01-29T12:41:23;101904.81;;;3.34;84.17
3780;BME280;1905;52.482;9.802;2023-01-29T12:43:54;101894.38;;;3.30;84.59
3780;BME280;1905;52.482;9.802;2023-01-29T12:46:26;101883.06;;;3.28;85.27
3780;BME280;1905;52.482;9.802;2023-01-29T12:48:56;101881.34;;;3.33;84.31
3780;BME280;1905;52.482;9.802;2023-01-29T12:51:30;101884.78;;;3.32;84.36
3780;BME280;1905;52.482;9.802;2023-01-29T12:54:03;101885.69;;;3.35;84.56
3780;BME280;1905;52.482;9.802;2023-01-29T12:56:35;101877.84;;;3.32;84.82
3780;BME280;1905;52.482;9.802;2023-01-29T12:59:13;101875.25;;;3.35;84.83
3780;BME280;1905;52.482;9.802;2023-01-29T13:01:47;101869.19;;;3.36;84.69
3780;BME280;1905;52.482;9.802;2023-01-29T13:04:29;101874.38;;;3.35;84.58
3780;BME280;1905;52.482;9.802;2023-01-29T13:07:08;101866.53;;;3.30;84.27
3780;BME280;1905;52.482;9.802;2023-01-29T13:09:40;101859.59;;;3.34;84.57
3780;BME280;1905;52.482;9.802;2023-01-29T13:12:14;101851.75;;;3.34;84.30
3780;BME280;1905;52.482;9.802;2023-01-29T13:14:45;101857.00;;;3.34;84.63
3780;BME280;1905;52.482;9.802;2023-01-29T13:17:19;101839.59;;;3.36;84.43
3780;BME280;1905;52.482;9.802;2023-01-29T13:19:51;101834.41;;;3.42;84.57
3780;BME280;1905;52.482;9.802;2023-01-29T13:22:23;101826.56;;;3.42;85.23
3780;BME280;1905;52.482;9.802;2023-01-29T13:24:52;101829.19;;;3.42;84.42
3780;BME280;1905;52.482;9.802;2023-01-29T13:27:32;101825.69;;;3.43;83.81
3780;BME280;1905;52.482;9.802;2023-01-29T13:30:02;101831.78;;;3.46;83.84
3780;BME280;1905;52.482;9.802;2023-01-29T13:32:31;101834.41;;;3.46;84.91
3780;BME280;1905;52.482;9.802;2023-01-29T13:35:03;101820.50;;;3.49;84.81
3780;BME280;1905;52.482;9.802;2023-01-29T13:37:34;101823.09;;;3.46;84.31
3780;BME280;1905;52.482;9.802;2023-01-29T13:40:05;101813.53;;;3.51;84.94
3780;BME280;1905;52.482;9.802;2023-01-29T13:42:41;101808.31;;;3.51;84.71
3780;BME280;1905;52.482;9.802;2023-01-29T13:45:18;101810.03;;;3.49;84.76
3780;BME280;1905;52.482;9.802;2023-01-29T13:47:48;101797.00;;;3.49;84.14
3780;BME280;1905;52.482;9.802;2023-01-29T13:50:23;101792.66;;;3.54;84.22
3780;BME280;1905;52.482;9.802;2023-01-29T13:52:53;101795.28;;;3.57;84.09
3780;BME280;1905;52.482;9.802;2023-01-29T13:55:25;101792.66;;;3.57;84.79